EST,Max TemperatureF,Mean TemperatureF,Min TemperatureF,Max Dew PointF,MeanDew PointF,Min DewpointF,Max Humidity, Mean Humidity, Min Humidity, Max Sea Level PressureIn, Mean Sea Level PressureIn, Min Sea Level PressureIn, Max VisibilityMiles, Mean VisibilityMiles, Min VisibilityMiles, Max Wind SpeedMPH, Mean Wind SpeedMPH, Max Gust SpeedMPH,PrecipitationIn, CloudCover, Events, WindDirDegrees
2013-1-1,33,27,21,30,21,14,88,74,55,30.17,30.10,30.05,10,8,2,12,5,,0.01,8,Rain-Snow,316
2013-1-2,23,16,10,15,10,7,86,76,56,30.29,30.23,30.16,10,8,1,6,1,,0.00,6,,232
2013-1-3,32,18,5,20,12,2,84,68,51,30.32,30.27,30.23,10,10,10,17,5,22,0.00,4,Fog,232
2013-1-4,32,28,21,20,16,14,71,62,47,30.36,30.31,30.25,10,10,10,24,13,30,0.00,2,,232
2013-1-5,37,26,16,25,19,12,82,67,50,30.39,30.29,30.17,10,10,10,14,8,,0.00,4,Rain-Snow,200
2013-1-6,37,31,25,30,26,18,82,74,65,30.36,30.11,30.00,10,7,2,20,11,26,0.00,8,Rain-Snow,235
2013-1-7,36,28,21,23,21,18,88,75,56,30.51,30.40,30.28,10,9,4,10,5,,0.00,2,,187
2013-1-8,44,30,17,27,23,14,86,70,49,30.35,30.29,30.25,10,10,8,9,3,,0.00,3,Fog,154
2013-1-9,48,40,31,37,31,25,81,71,50,30.53,30.34,30.22,10,10,4,17,8,25,0.04,6,Rain,219
2013-1-10,42,34,26,32,28,23,93,75,59,30.56,30.41,30.15,10,9,4,13,4,,0.02,6,Fog-Rain,85
2013-1-11,60,51,42,52,44,32,88,75,55,30.14,29.96,29.90,10,10,2,22,9,28,0.46,7,Rain,167
2013-1-12,64,56,48,59,52,42,100,83,62,30.04,29.94,29.81,10,9,4,17,9,21,0.05,6,Fog-Rain,176
2013-1-13,66,50,35,57,48,30,93,81,60,30.13,29.88,29.73,10,8,2,28,14,47,0.52,8,Rain,223
2013-1-14,35,29,23,30,18,16,81,73,64,30.48,30.36,30.13,10,10,10,14,10,,0.00,7,,334
2013-1-15,32,28,24,22,18,16,74,67,57,30.42,30.33,30.13,10,10,10,13,7,,0.00,6,,37
2013-1-16,35,32,29,24,22,18,77,67,50,30.10,30.04,29.99,10,10,10,12,4,,0.00,8,,230
2013-1-17,41,34,24,25,21,13,73,62,48,30.41,30.21,30.11,10,10,10,15,7,21,0.00,5,,294
2013-1-18,38,28,18,19,13,9,75,54,30,30.54,30.41,30.22,10,10,10,22,8,29,0.00,1,,199
2013-1-19,53,44,35,25,20,19,52,39,26,30.21,30.05,29.89,10,10,10,26,19,34,0.00,1,,199
2013-1-20,45,34,23,31,14,6,58,48,37,30.25,30.12,29.88,10,10,10,31,15,45,0.00,4,,274
2013-1-21,23,16,9,14,8,-5,80,63,49,30.26,30.13,30.06,10,7,1,25,13,32,0.00,7,Snow,267
2013-1-22,16,10,5,-2,-4,-6,65,53,39,30.41,30.34,30.26,10,10,10,17,12,23,0.00,3,,263
2013-1-23,20,15,10,14,5,-3,84,62,36,30.38,30.25,30.13,10,9,2,15,7,,0.04,8,Snow,226
2013-1-24,21,16,11,14,7,3,80,65,49,30.61,30.41,30.14,10,10,5,18,10,25,0.00,6,Snow,330
2013-1-25,25,20,16,19,13,6,86,74,56,30.48,30.18,30.06,10,7,0,13,8,18,0.10,8,Snow,163
2013-1-26,28,26,23,20,16,14,77,68,57,30.47,30.31,30.14,10,10,10,16,9,,0.00,7,,294
2013-1-27,34,22,11,30,20,7,87,73,58,30.50,30.37,30.20,10,9,6,12,5,,0.16,6,Rain,102
2013-1-28,51,42,33,51,42,30,100,89,76,30.18,30.08,30.00,10,7,2,23,12,32,0.32,8,Rain,198
2013-1-29,64,56,48,54,51,48,100,74,59,30.04,29.86,29.59,10,9,3,23,14,33,0.00,7,Rain,180
2013-1-30,66,50,32,54,44,24,91,74,60,29.57,29.38,29.26,10,8,1,31,20,45,0.94,8,Rain,211
2013-1-31,32,24,15,24,16,5,86,68,47,30.04,29.85,29.52,10,7,0,30,21,44,0.02,7,Snow,256